LIRS

Details ICAO LIRS (GRS)
Name GROSSETO
Region Italy
Timezone Europe/Rome (UTC+2.0)
Plans Departing 44
Arriving 53
Stats Elevation 15 ft / 5 m (AMSL)
Location 42.760900° 11.070600°
Runways 1
Magnetic Variation 2.902° E
Sunrise 2018-10-24 05:40:35 UTC / 2018-10-24 07:40:35 Local
Sunset 2018-10-24 16:21:36 UTC / 2018-10-24 18:21:36 Local
Advertisement - Login to hide

Runways

ID Width Length Bearing (true/mag) Surface Threshold Overrun Markings Lighting
03L 148 ft / 45 m 9,821 ft / 2,994 m 30.87° / 27.96° ASPHALT 318 ft / 97 m 0 ft / 0 m PREC-APP CENTERLINE EDGE THRESHOLD CALVERT TDZ REIL-OMNI
21R 148 ft / 45 m 9,821 ft / 2,994 m 210.88° / 207.98° ASPHALT 0 ft / 0 m 0 ft / 0 m APP CENTERLINE EDGE THRESHOLD REIL-OMNI

Map

Weather


0- 5 10 15 20 25 30 35+ Temperature / °C

Clouds and Precipitation
Forecast for 2018-10-24 00:00 UTC. Updated 5 hours ago

Ground ~20,000 ft ~40,000 ft Winds

METAR

LIRS 240155Z 03005KT CAVOK 06/06 Q1016 RMK SKC VIS MIN 9999 WIND THR03 04005KT WIND THR21 06003KT BLU

TAF

Not found

Frequencies

Tower 128.10 MHz Grosseto tower
Approach 124.52 MHz Grosseto approach
Warning: Do not use this data for real-world aviation or navigation. No guarantee of current accuracy is given.